sensor_id;sensor_type;location;lat;lon;timestamp;temperature;humidity
4530;DHT22;2277;51.626;7.516;2023-02-13T00:00:09;10.50;99.90
4530;DHT22;2277;51.626;7.516;2023-02-13T00:02:35;10.50;99.90
4530;DHT22;2277;51.626;7.516;2023-02-13T00:05:00;10.50;99.90
4530;DHT22;2277;51.626;7.516;2023-02-13T00:07:26;10.40;99.90
4530;DHT22;2277;51.626;7.516;2023-02-13T00:09:51;10.30;99.90
4530;DHT22;2277;51.626;7.516;2023-02-13T00:12:17;10.40;99.90
4530;DHT22;2277;51.626;7.516;2023-02-13T00:14:43;10.40;99.90
4530;DHT22;2277;51.626;7.516;2023-02-13T00:17:08;10.40;99.90
4530;DHT22;2277;51.626;7.516;2023-02-13T00:19:34;10.40;99.90
4530;DHT22;2277;51.626;7.516;2023-02-13T00:21:59;10.30;99.90
4530;DHT22;2277;51.626;7.516;2023-02-13T00:24:25;10.20;99.90
4530;DHT22;2277;51.626;7.516;2023-02-13T00:26:50;10.10;99.90
4530;DHT22;2277;51.626;7.516;2023-02-13T00:29:16;10.10;99.90
4530;DHT22;2277;51.626;7.516;2023-02-13T00:31:42;10.10;99.90
4530;DHT22;2277;51.626;7.516;2023-02-13T00:34:07;10.20;99.90
4530;DHT22;2277;51.626;7.516;2023-02-13T00:36:33;10.20;99.90
4530;DHT22;2277;51.626;7.516;2023-02-13T00:38:58;10.20;99.90
4530;DHT22;2277;51.626;7.516;2023-02-13T00:41:24;10.20;99.90
4530;DHT22;2277;51.626;7.516;2023-02-13T00:43:50;10.10;99.90
4530;DHT22;2277;51.626;7.516;2023-02-13T00:46:16;10.10;99.90
4530;DHT22;2277;51.626;7.516;2023-02-13T00:48:42;10.10;99.90
4530;DHT22;2277;51.626;7.516;2023-02-13T00:51:09;10.10;99.90
4530;DHT22;2277;51.626;7.516;2023-02-13T00:53:35;10.10;99.90
4530;DHT22;2277;51.626;7.516;2023-02-13T00:56:01;10.10;99.90
4530;DHT22;2277;51.626;7.516;2023-02-13T00:58:27;10.10;99.90
4530;DHT22;2277;51.626;7.516;2023-02-13T01:00:53;10.20;99.90
4530;DHT22;2277;51.626;7.516;2023-02-13T01:03:20;10.20;99.90
4530;DHT22;2277;51.626;7.516;2023-02-13T01:05:46;10.20;99.90
4530;DHT22;2277;51.626;7.516;2023-02-13T01:08:13;10.10;99.90
4530;DHT22;2277;51.626;7.516;2023-02-13T01:10:39;10.20;99.90
4530;DHT22;2277;51.626;7.516;2023-02-13T01:13:06;10.20;99.90
4530;DHT22;2277;51.626;7.516;2023-02-13T01:15:33;10.30;99.90
4530;DHT22;2277;51.626;7.516;2023-02-13T01:17:58;10.30;99.90
4530;DHT22;2277;51.626;7.516;2023-02-13T01:20:26;10.30;99.90
4530;DHT22;2277;51.626;7.516;2023-02-13T01:22:52;10.30;99.90
4530;DHT22;2277;51.626;7.516;2023-02-13T01:25:17;10.20;99.90
4530;DHT22;2277;51.626;7.516;2023-02-13T01:27:43;10.20;99.90
4530;DHT22;2277;51.626;7.516;2023-02-13T01:30:11;10.20;99.90
4530;DHT22;2277;51.626;7.516;2023-02-13T01:32:39;10.20;99.90
4530;DHT22;2277;51.626;7.516;2023-02-13T01:35:05;10.20;99.90
4530;DHT22;2277;51.626;7.516;2023-02-13T01:37:30;10.20;99.90
4530;DHT22;2277;51.626;7.516;2023-02-13T01:39:56;10.00;99.90
4530;DHT22;2277;51.626;7.516;2023-02-13T01:42:31;10.00;99.90
4530;DHT22;2277;51.626;7.516;2023-02-13T01:44:59;9.90;99.90
4530;DHT22;2277;51.626;7.516;2023-02-13T01:47:26;9.90;99.90
4530;DHT22;2277;51.626;7.516;2023-02-13T01:52:40;9.90;99.90
4530;DHT22;2277;51.626;7.516;2023-02-13T01:55:08;9.80;99.90
4530;DHT22;2277;51.626;7.516;2023-02-13T01:57:34;9.80;99.90
4530;DHT22;2277;51.626;7.516;2023-02-13T02:00:06;9.80;99.90
4530;DHT22;2277;51.626;7.516;2023-02-13T02:02:36;9.70;99.90
4530;DHT22;2277;51.626;7.516;2023-02-13T02:05:04;9.70;99.90
4530;DHT22;2277;51.626;7.516;2023-02-13T02:07:32;9.70;99.90
4530;DHT22;2277;51.626;7.516;2023-02-13T02:10:02;9.70;99.90
4530;DHT22;2277;51.626;7.516;2023-02-13T02:12:37;9.70;99.90
4530;DHT22;2277;51.626;7.516;2023-02-13T02:15:05;9.70;99.90
4530;DHT22;2277;51.626;7.516;2023-02-13T02:17:31;9.80;99.90
4530;DHT22;2277;51.626;7.516;2023-02-13T02:36:30;10.00;99.90
4530;DHT22;2277;51.626;7.516;2023-02-13T02:42:29;9.90;99.90
4530;DHT22;2277;51.626;7.516;2023-02-13T02:48:04;9.90;99.90
4530;DHT22;2277;51.626;7.516;2023-02-13T02:51:23;9.90;99.90
4530;DHT22;2277;51.626;7.516;2023-02-13T02:54:02;9.90;99.90
4530;DHT22;2277;51.626;7.516;2023-02-13T02:56:51;9.90;99.90
4530;DHT22;2277;51.626;7.516;2023-02-13T02:59:19;9.80;99.90
4530;DHT22;2277;51.626;7.516;2023-02-13T03:02:04;9.80;99.90
4530;DHT22;2277;51.626;7.516;2023-02-13T03:04:52;9.80;99.90
4530;DHT22;2277;51.626;7.516;2023-02-13T03:07:36;9.60;99.90
4530;DHT22;2277;51.626;7.516;2023-02-13T03:10:05;9.60;99.90
4530;DHT22;2277;51.626;7.516;2023-02-13T03:12:51;9.70;99.90
4530;DHT22;2277;51.626;7.516;2023-02-13T03:15:41;9.70;99.90
4530;DHT22;2277;51.626;7.516;2023-02-13T03:18:27;9.60;99.90
4530;DHT22;2277;51.626;7.516;2023-02-13T03:41:57;9.70;99.90
4530;DHT22;2277;51.626;7.516;2023-02-13T03:44:40;9.70;99.90
4530;DHT22;2277;51.626;7.516;2023-02-13T03:47:09;9.70;99.90
4530;DHT22;2277;51.626;7.516;2023-02-13T03:49:43;9.80;99.90
4530;DHT22;2277;51.626;7.516;2023-02-13T03:57:53;9.80;99.90
4530;DHT22;2277;51.626;7.516;2023-02-13T04:00:42;9.70;99.90
4530;DHT22;2277;51.626;7.516;2023-02-13T04:06:02;9.60;99.90
4530;DHT22;2277;51.626;7.516;2023-02-13T04:08:28;9.50;99.90
4530;DHT22;2277;51.626;7.516;2023-02-13T04:11:12;9.50;99.90
4530;DHT22;2277;51.626;7.516;2023-02-13T04:13:56;9.50;99.90
4530;DHT22;2277;51.626;7.516;2023-02-13T04:16:37;9.40;99.90
4530;DHT22;2277;51.626;7.516;2023-02-13T04:19:04;9.40;99.90
4530;DHT22;2277;51.626;7.516;2023-02-13T04:21:35;9.40;99.90
4530;DHT22;2277;51.626;7.516;2023-02-13T04:24:01;9.40;99.90
4530;DHT22;2277;51.626;7.516;2023-02-13T04:26:33;9.50;99.90
4530;DHT22;2277;51.626;7.516;2023-02-13T04:28:59;9.40;99.90
4530;DHT22;2277;51.626;7.516;2023-02-13T04:31:25;9.30;99.90
4530;DHT22;2277;51.626;7.516;2023-02-13T04:33:50;9.30;99.90
4530;DHT22;2277;51.626;7.516;2023-02-13T04:36:16;9.40;99.90
4530;DHT22;2277;51.626;7.516;2023-02-13T04:38:41;9.50;99.90
4530;DHT22;2277;51.626;7.516;2023-02-13T04:41:07;9.30;99.90
4530;DHT22;2277;51.626;7.516;2023-02-13T04:43:32;9.30;99.90
4530;DHT22;2277;51.626;7.516;2023-02-13T04:45:58;9.30;99.90
4530;DHT22;2277;51.626;7.516;2023-02-13T04:48:24;9.20;99.90
4530;DHT22;2277;51.626;7.516;2023-02-13T04:50:49;9.20;99.90
4530;DHT22;2277;51.626;7.516;2023-02-13T04:53:15;9.20;99.90
4530;DHT22;2277;51.626;7.516;2023-02-13T04:55:40;9.20;99.90
4530;DHT22;2277;51.626;7.516;2023-02-13T04:58:06;9.00;99.90
4530;DHT22;2277;51.626;7.516;2023-02-13T05:00:31;9.10;99.90
4530;DHT22;2277;51.626;7.516;2023-02-13T05:03:04;9.30;99.90
4530;DHT22;2277;51.626;7.516;2023-02-13T05:05:30;9.40;99.90
4530;DHT22;2277;51.626;7.516;2023-02-13T05:07:56;9.30;99.90
4530;DHT22;2277;51.626;7.516;2023-02-13T05:10:22;9.20;99.90
4530;DHT22;2277;51.626;7.516;2023-02-13T05:12:47;9.30;99.90
4530;DHT22;2277;51.626;7.516;2023-02-13T05:15:13;9.30;99.90
4530;DHT22;2277;51.626;7.516;2023-02-13T05:17:38;9.20;99.90
4530;DHT22;2277;51.626;7.516;2023-02-13T05:20:05;9.00;99.90
4530;DHT22;2277;51.626;7.516;2023-02-13T05:22:30;9.10;99.90
4530;DHT22;2277;51.626;7.516;2023-02-13T05:25:15;9.00;99.90
4530;DHT22;2277;51.626;7.516;2023-02-13T05:27:40;9.00;99.90
4530;DHT22;2277;51.626;7.516;2023-02-13T05:30:06;9.00;99.90
4530;DHT22;2277;51.626;7.516;2023-02-13T05:32:32;8.90;99.90
4530;DHT22;2277;51.626;7.516;2023-02-13T05:34:58;8.90;99.90
4530;DHT22;2277;51.626;7.516;2023-02-13T05:37:23;8.90;99.90
4530;DHT22;2277;51.626;7.516;2023-02-13T05:39:49;9.10;99.90
4530;DHT22;2277;51.626;7.516;2023-02-13T05:42:14;9.10;99.90
4530;DHT22;2277;51.626;7.516;2023-02-13T05:44:40;9.00;99.90
4530;DHT22;2277;51.626;7.516;2023-02-13T05:47:05;9.00;99.90
4530;DHT22;2277;51.626;7.516;2023-02-13T05:49:31;8.90;99.90
4530;DHT22;2277;51.626;7.516;2023-02-13T05:51:56;8.90;99.90
4530;DHT22;2277;51.626;7.516;2023-02-13T05:54:22;8.80;99.90
4530;DHT22;2277;51.626;7.516;2023-02-13T05:56:48;8.90;99.90
4530;DHT22;2277;51.626;7.516;2023-02-13T05:59:13;9.00;99.90
4530;DHT22;2277;51.626;7.516;2023-02-13T06:01:39;8.90;99.90
4530;DHT22;2277;51.626;7.516;2023-02-13T06:04:04;8.90;99.90
4530;DHT22;2277;51.626;7.516;2023-02-13T06:06:30;9.10;99.90
4530;DHT22;2277;51.626;7.516;2023-02-13T06:08:56;9.10;99.90
4530;DHT22;2277;51.626;7.516;2023-02-13T06:11:21;9.00;99.90
4530;DHT22;2277;51.626;7.516;2023-02-13T06:13:47;9.20;99.90
4530;DHT22;2277;51.626;7.516;2023-02-13T06:16:13;9.10;99.90
4530;DHT22;2277;51.626;7.516;2023-02-13T06:18:39;8.90;99.90
4530;DHT22;2277;51.626;7.516;2023-02-13T06:21:05;8.90;99.90
4530;DHT22;2277;51.626;7.516;2023-02-13T06:23:31;8.90;99.90
4530;DHT22;2277;51.626;7.516;2023-02-13T06:26:05;8.80;99.90
4530;DHT22;2277;51.626;7.516;2023-02-13T06:28:31;9.00;99.90
4530;DHT22;2277;51.626;7.516;2023-02-13T06:30:57;9.10;99.90
4530;DHT22;2277;51.626;7.516;2023-02-13T06:33:22;9.10;99.90
4530;DHT22;2277;51.626;7.516;2023-02-13T06:35:48;9.00;99.90
4530;DHT22;2277;51.626;7.516;2023-02-13T06:38:14;9.00;99.90
4530;DHT22;2277;51.626;7.516;2023-02-13T06:40:44;8.90;99.90
4530;DHT22;2277;51.626;7.516;2023-02-13T06:43:09;8.90;99.90
4530;DHT22;2277;51.626;7.516;2023-02-13T06:45:36;8.90;99.90
4530;DHT22;2277;51.626;7.516;2023-02-13T06:48:02;8.90;99.90
4530;DHT22;2277;51.626;7.516;2023-02-13T06:50:27;9.00;99.90
4530;DHT22;2277;51.626;7.516;2023-02-13T06:52:53;9.10;99.90
4530;DHT22;2277;51.626;7.516;2023-02-13T06:55:19;8.90;99.90
4530;DHT22;2277;51.626;7.516;2023-02-13T06:57:46;8.90;99.90
4530;DHT22;2277;51.626;7.516;2023-02-13T07:00:13;8.90;99.90
4530;DHT22;2277;51.626;7.516;2023-02-13T07:02:40;9.00;99.90
4530;DHT22;2277;51.626;7.516;2023-02-13T07:05:06;9.00;99.90
4530;DHT22;2277;51.626;7.516;2023-02-13T07:07:34;9.00;99.90
4530;DHT22;2277;51.626;7.516;2023-02-13T07:10:00;9.10;99.90
4530;DHT22;2277;51.626;7.516;2023-02-13T07:12:26;9.10;99.90
4530;DHT22;2277;51.626;7.516;2023-02-13T07:14:52;9.20;99.90
4530;DHT22;2277;51.626;7.516;2023-02-13T07:17:17;9.30;99.90
4530;DHT22;2277;51.626;7.516;2023-02-13T07:19:43;9.30;99.90
4530;DHT22;2277;51.626;7.516;2023-02-13T07:22:08;9.30;99.90
4530;DHT22;2277;51.626;7.516;2023-02-13T07:24:34;9.30;99.90
4530;DHT22;2277;51.626;7.516;2023-02-13T07:27:03;9.30;99.90
4530;DHT22;2277;51.626;7.516;2023-02-13T07:29:29;9.40;99.90
4530;DHT22;2277;51.626;7.516;2023-02-13T07:31:54;9.40;99.90
4530;DHT22;2277;51.626;7.516;2023-02-13T07:34:20;9.50;99.90
4530;DHT22;2277;51.626;7.516;2023-02-13T07:36:45;9.50;99.90
4530;DHT22;2277;51.626;7.516;2023-02-13T07:39:11;9.50;99.90
4530;DHT22;2277;51.626;7.516;2023-02-13T07:41:36;9.60;99.90
4530;DHT22;2277;51.626;7.516;2023-02-13T07:44:02;9.60;99.90
4530;DHT22;2277;51.626;7.516;2023-02-13T07:46:27;9.60;99.90
4530;DHT22;2277;51.626;7.516;2023-02-13T07:48:53;9.70;99.90
4530;DHT22;2277;51.626;7.516;2023-02-13T07:51:19;9.70;99.90
4530;DHT22;2277;51.626;7.516;2023-02-13T07:53:45;9.80;99.90
4530;DHT22;2277;51.626;7.516;2023-02-13T07:56:10;9.80;99.90
4530;DHT22;2277;51.626;7.516;2023-02-13T07:58:37;9.90;99.90
4530;DHT22;2277;51.626;7.516;2023-02-13T08:01:13;9.90;99.90
4530;DHT22;2277;51.626;7.516;2023-02-13T08:03:39;10.00;99.90
4530;DHT22;2277;51.626;7.516;2023-02-13T08:06:06;10.10;99.90
4530;DHT22;2277;51.626;7.516;2023-02-13T08:08:32;10.10;99.90
4530;DHT22;2277;51.626;7.516;2023-02-13T08:11:04;10.00;99.90
4530;DHT22;2277;51.626;7.516;2023-02-13T08:13:48;9.90;99.90
4530;DHT22;2277;51.626;7.516;2023-02-13T08:16:14;10.00;99.90
4530;DHT22;2277;51.626;7.516;2023-02-13T08:18:40;10.00;99.90
4530;DHT22;2277;51.626;7.516;2023-02-13T08:21:05;10.00;99.90
4530;DHT22;2277;51.626;7.516;2023-02-13T08:23:31;10.20;99.90
4530;DHT22;2277;51.626;7.516;2023-02-13T08:26:00;10.40;99.90
4530;DHT22;2277;51.626;7.516;2023-02-13T08:28:27;10.60;99.90
4530;DHT22;2277;51.626;7.516;2023-02-13T08:30:53;10.70;99.90
4530;DHT22;2277;51.626;7.516;2023-02-13T08:33:19;10.80;99.90
4530;DHT22;2277;51.626;7.516;2023-02-13T08:35:44;10.90;99.90
4530;DHT22;2277;51.626;7.516;2023-02-13T08:38:10;11.00;99.90
4530;DHT22;2277;51.626;7.516;2023-02-13T08:40:35;11.10;99.90
4530;DHT22;2277;51.626;7.516;2023-02-13T08:43:03;11.20;99.90
4530;DHT22;2277;51.626;7.516;2023-02-13T08:45:29;11.40;99.90
4530;DHT22;2277;51.626;7.516;2023-02-13T08:47:56;11.40;99.90
4530;DHT22;2277;51.626;7.516;2023-02-13T08:50:22;11.40;99.90
4530;DHT22;2277;51.626;7.516;2023-02-13T08:52:48;11.50;99.90
4530;DHT22;2277;51.626;7.516;2023-02-13T08:55:13;11.70;99.90
4530;DHT22;2277;51.626;7.516;2023-02-13T08:57:39;11.70;99.90
4530;DHT22;2277;51.626;7.516;2023-02-13T09:00:05;11.90;99.90
4530;DHT22;2277;51.626;7.516;2023-02-13T09:02:31;12.10;99.90
4530;DHT22;2277;51.626;7.516;2023-02-13T09:04:57;12.00;99.90
4530;DHT22;2277;51.626;7.516;2023-02-13T09:07:22;12.00;99.90
4530;DHT22;2277;51.626;7.516;2023-02-13T09:09:48;11.80;99.90
4530;DHT22;2277;51.626;7.516;2023-02-13T09:12:13;12.10;99.90
4530;DHT22;2277;51.626;7.516;2023-02-13T09:14:39;12.40;99.90
4530;DHT22;2277;51.626;7.516;2023-02-13T09:17:05;12.80;99.90
4530;DHT22;2277;51.626;7.516;2023-02-13T09:19:30;13.00;99.90
4530;DHT22;2277;51.626;7.516;2023-02-13T09:21:56;13.30;99.90
4530;DHT22;2277;51.626;7.516;2023-02-13T09:24:21;13.40;99.90
4530;DHT22;2277;51.626;7.516;2023-02-13T09:26:47;13.60;99.90
4530;DHT22;2277;51.626;7.516;2023-02-13T09:29:13;13.80;99.90
4530;DHT22;2277;51.626;7.516;2023-02-13T09:31:38;14.00;99.90
4530;DHT22;2277;51.626;7.516;2023-02-13T09:34:04;14.30;99.90
4530;DHT22;2277;51.626;7.516;2023-02-13T09:36:30;14.60;99.90
4530;DHT22;2277;51.626;7.516;2023-02-13T09:38:56;14.80;99.90
4530;DHT22;2277;51.626;7.516;2023-02-13T09:41:37;14.40;99.90
4530;DHT22;2277;51.626;7.516;2023-02-13T09:47:33;14.50;99.90
4530;DHT22;2277;51.626;7.516;2023-02-13T09:50:11;14.80;99.90
4530;DHT22;2277;51.626;7.516;2023-02-13T09:52:39;15.10;99.90
4530;DHT22;2277;51.626;7.516;2023-02-13T09:55:19;15.10;99.90
4530;DHT22;2277;51.626;7.516;2023-02-13T10:00:49;15.40;99.90
4530;DHT22;2277;51.626;7.516;2023-02-13T10:06:03;15.90;99.90
4530;DHT22;2277;51.626;7.516;2023-02-13T10:16:55;16.50;99.90
4530;DHT22;2277;51.626;7.516;2023-02-13T10:19:52;16.40;99.90
4530;DHT22;2277;51.626;7.516;2023-02-13T10:25:20;16.40;99.90
4530;DHT22;2277;51.626;7.516;2023-02-13T10:27:54;16.80;99.90
4530;DHT22;2277;51.626;7.516;2023-02-13T10:30:31;16.90;99.90
4530;DHT22;2277;51.626;7.516;2023-02-13T10:35:55;17.20;99.90
4530;DHT22;2277;51.626;7.516;2023-02-13T10:38:24;17.20;99.90
4530;DHT22;2277;51.626;7.516;2023-02-13T11:00:30;16.90;99.90
4530;DHT22;2277;51.626;7.516;2023-02-13T11:02:58;17.30;99.90
4530;DHT22;2277;51.626;7.516;2023-02-13T11:05:30;17.40;99.90
4530;DHT22;2277;51.626;7.516;2023-02-13T11:07:56;17.80;99.90
4530;DHT22;2277;51.626;7.516;2023-02-13T11:10:25;18.10;99.90
4530;DHT22;2277;51.626;7.516;2023-02-13T11:12:52;18.20;99.90
4530;DHT22;2277;51.626;7.516;2023-02-13T11:15:27;18.40;99.90
4530;DHT22;2277;51.626;7.516;2023-02-13T11:17:56;18.10;99.90
4530;DHT22;2277;51.626;7.516;2023-02-13T11:20:30;18.40;99.90
4530;DHT22;2277;51.626;7.516;2023-02-13T11:23:16;18.40;99.90
4530;DHT22;2277;51.626;7.516;2023-02-13T11:25:55;18.50;99.90
4530;DHT22;2277;51.626;7.516;2023-02-13T11:28:22;18.40;99.90
4530;DHT22;2277;51.626;7.516;2023-02-13T11:30:48;18.80;99.90
4530;DHT22;2277;51.626;7.516;2023-02-13T11:35:45;18.80;99.90
4530;DHT22;2277;51.626;7.516;2023-02-13T11:38:20;18.70;99.90
4530;DHT22;2277;51.626;7.516;2023-02-13T11:40:50;18.70;99.90
4530;DHT22;2277;51.626;7.516;2023-02-13T11:43:27;18.30;99.90
4530;DHT22;2277;51.626;7.516;2023-02-13T11:48:27;19.10;99.90
4530;DHT22;2277;51.626;7.516;2023-02-13T11:50:54;19.20;99.90
4530;DHT22;2277;51.626;7.516;2023-02-13T11:53:26;19.10;99.90
4530;DHT22;2277;51.626;7.516;2023-02-13T11:56:14;19.10;99.90
4530;DHT22;2277;51.626;7.516;2023-02-13T11:58:40;19.50;99.90
4530;DHT22;2277;51.626;7.516;2023-02-13T12:04:12;19.60;99.90
4530;DHT22;2277;51.626;7.516;2023-02-13T12:06:41;19.60;99.90
4530;DHT22;2277;51.626;7.516;2023-02-13T12:09:21;19.40;99.90
4530;DHT22;2277;51.626;7.516;2023-02-13T12:11:52;19.40;99.90
4530;DHT22;2277;51.626;7.516;2023-02-13T12:14:24;19.70;99.90
4530;DHT22;2277;51.626;7.516;2023-02-13T12:16:54;19.60;99.90
4530;DHT22;2277;51.626;7.516;2023-02-13T12:19:29;19.60;99.90
4530;DHT22;2277;51.626;7.516;2023-02-13T12:22:12;19.30;99.90
4530;DHT22;2277;51.626;7.516;2023-02-13T12:35:52;19.80;99.90
4530;DHT22;2277;51.626;7.516;2023-02-13T12:49:37;20.10;99.90
4530;DHT22;2277;51.626;7.516;2023-02-13T12:52:44;20.30;99.90
4530;DHT22;2277;51.626;7.516;2023-02-13T13:06:28;20.90;99.80
4530;DHT22;2277;51.626;7.516;2023-02-13T13:17:39;20.70;99.10
4530;DHT22;2277;51.626;7.516;2023-02-13T13:20:41;20.90;98.80
4530;DHT22;2277;51.626;7.516;2023-02-13T13:23:10;20.80;99.40
4530;DHT22;2277;51.626;7.516;2023-02-13T13:26:29;21.10;99.90
4530;DHT22;2277;51.626;7.516;2023-02-13T13:28:36;21.30;98.80
4530;DHT22;2277;51.626;7.516;2023-02-13T13:31:03;21.40;98.50
4530;DHT22;2277;51.626;7.516;2023-02-13T13:33:30;21.50;97.80
4530;DHT22;2277;51.626;7.516;2023-02-13T13:36:08;21.30;96.90
4530;DHT22;2277;51.626;7.516;2023-02-13T13:38:52;20.80;97.80
4530;DHT22;2277;51.626;7.516;2023-02-13T13:50:24;20.40;98.70
4530;DHT22;2277;51.626;7.516;2023-02-13T13:53:16;20.50;98.60
4530;DHT22;2277;51.626;7.516;2023-02-13T14:04:02;21.30;98.60
4530;DHT22;2277;51.626;7.516;2023-02-13T14:14:54;22.00;96.60
4530;DHT22;2277;51.626;7.516;2023-02-13T14:22:55;22.00;95.50
4530;DHT22;2277;51.626;7.516;2023-02-13T14:25:26;22.10;95.60
4530;DHT22;2277;51.626;7.516;2023-02-13T14:28:03;22.10;94.70
4530;DHT22;2277;51.626;7.516;2023-02-13T14:30:38;21.70;94.30
4530;DHT22;2277;51.626;7.516;2023-02-13T14:33:06;21.60;95.00
4530;DHT22;2277;51.626;7.516;2023-02-13T14:35:34;21.70;95.00
4530;DHT22;2277;51.626;7.516;2023-02-13T14:38:03;21.80;95.00
4530;DHT22;2277;51.626;7.516;2023-02-13T14:40:45;21.70;95.00
4530;DHT22;2277;51.626;7.516;2023-02-13T14:46:36;20.50;95.70
4530;DHT22;2277;51.626;7.516;2023-02-13T14:51:44;20.00;96.50
4530;DHT22;2277;51.626;7.516;2023-02-13T14:56:44;19.20;97.70
4530;DHT22;2277;51.626;7.516;2023-02-13T14:59:21;19.20;98.10
4530;DHT22;2277;51.626;7.516;2023-02-13T15:02:01;19.30;98.20
4530;DHT22;2277;51.626;7.516;2023-02-13T15:06:59;19.00;98.90
4530;DHT22;2277;51.626;7.516;2023-02-13T15:09:51;18.80;99.50
4530;DHT22;2277;51.626;7.516;2023-02-13T15:12:32;18.80;99.90
4530;DHT22;2277;51.626;7.516;2023-02-13T15:14:58;18.90;99.90
4530;DHT22;2277;51.626;7.516;2023-02-13T15:17:32;19.00;99.80
4530;DHT22;2277;51.626;7.516;2023-02-13T15:20:29;18.60;99.90
4530;DHT22;2277;51.626;7.516;2023-02-13T15:22:53;18.40;99.90
4530;DHT22;2277;51.626;7.516;2023-02-13T15:25:37;18.40;99.90
4530;DHT22;2277;51.626;7.516;2023-02-13T15:28:05;18.50;99.90
4530;DHT22;2277;51.626;7.516;2023-02-13T15:30:33;18.60;99.90
4530;DHT22;2277;51.626;7.516;2023-02-13T15:33:17;18.50;99.90
4530;DHT22;2277;51.626;7.516;2023-02-13T15:35:44;18.60;99.90
4530;DHT22;2277;51.626;7.516;2023-02-13T15:38:19;18.60;99.90
4530;DHT22;2277;51.626;7.516;2023-02-13T15:40:45;18.50;99.90
4530;DHT22;2277;51.626;7.516;2023-02-13T15:43:42;18.20;99.90
4530;DHT22;2277;51.626;7.516;2023-02-13T15:46:23;17.60;99.90
4530;DHT22;2277;51.626;7.516;2023-02-13T15:48:50;17.20;99.90
4530;DHT22;2277;51.626;7.516;2023-02-13T15:51:21;16.90;99.90
4530;DHT22;2277;51.626;7.516;2023-02-13T15:53:54;16.60;99.90
4530;DHT22;2277;51.626;7.516;2023-02-13T15:56:20;16.50;99.90
4530;DHT22;2277;51.626;7.516;2023-02-13T15:58:47;16.60;99.90
4530;DHT22;2277;51.626;7.516;2023-02-13T16:01:13;16.40;99.90
4530;DHT22;2277;51.626;7.516;2023-02-13T16:03:41;16.10;99.90
4530;DHT22;2277;51.626;7.516;2023-02-13T16:06:15;16.10;99.90
4530;DHT22;2277;51.626;7.516;2023-02-13T16:16:32;15.70;99.90
4530;DHT22;2277;51.626;7.516;2023-02-13T16:18:59;15.60;99.90
4530;DHT22;2277;51.626;7.516;2023-02-13T16:21:26;15.50;99.90
4530;DHT22;2277;51.626;7.516;2023-02-13T16:23:59;15.40;99.90
4530;DHT22;2277;51.626;7.516;2023-02-13T16:26:25;15.20;99.90
4530;DHT22;2277;51.626;7.516;2023-02-13T16:28:51;15.30;99.90
4530;DHT22;2277;51.626;7.516;2023-02-13T16:31:16;15.30;99.90
4530;DHT22;2277;51.626;7.516;2023-02-13T16:33:44;15.30;99.90
4530;DHT22;2277;51.626;7.516;2023-02-13T16:38:45;15.30;99.90
4530;DHT22;2277;51.626;7.516;2023-02-13T16:51:44;15.20;99.90
4530;DHT22;2277;51.626;7.516;2023-02-13T17:04:35;15.10;99.90
4530;DHT22;2277;51.626;7.516;2023-02-13T17:07:04;15.00;99.90
4530;DHT22;2277;51.626;7.516;2023-02-13T17:09:30;15.10;99.90
4530;DHT22;2277;51.626;7.516;2023-02-13T17:11:55;15.10;99.90
4530;DHT22;2277;51.626;7.516;2023-02-13T17:14:21;15.10;99.90
4530;DHT22;2277;51.626;7.516;2023-02-13T17:16:47;15.20;99.90
4530;DHT22;2277;51.626;7.516;2023-02-13T17:19:12;15.10;99.90
4530;DHT22;2277;51.626;7.516;2023-02-13T17:21:39;15.10;99.90
4530;DHT22;2277;51.626;7.516;2023-02-13T17:24:05;15.10;99.90
4530;DHT22;2277;51.626;7.516;2023-02-13T17:26:31;15.00;99.90
4530;DHT22;2277;51.626;7.516;2023-02-13T17:28:57;15.00;99.90
4530;DHT22;2277;51.626;7.516;2023-02-13T17:31:22;14.90;99.90
4530;DHT22;2277;51.626;7.516;2023-02-13T17:33:48;14.80;99.90
4530;DHT22;2277;51.626;7.516;2023-02-13T17:36:14;14.80;99.90
4530;DHT22;2277;51.626;7.516;2023-02-13T17:38:40;14.70;99.90
4530;DHT22;2277;51.626;7.516;2023-02-13T17:41:12;14.70;99.90
4530;DHT22;2277;51.626;7.516;2023-02-13T17:43:38;14.60;99.90
4530;DHT22;2277;51.626;7.516;2023-02-13T17:46:04;14.60;99.90
4530;DHT22;2277;51.626;7.516;2023-02-13T17:48:29;14.40;99.90
4530;DHT22;2277;51.626;7.516;2023-02-13T17:50:55;14.30;99.90
4530;DHT22;2277;51.626;7.516;2023-02-13T17:53:23;14.20;99.90
4530;DHT22;2277;51.626;7.516;2023-02-13T17:55:49;13.90;99.90
4530;DHT22;2277;51.626;7.516;2023-02-13T17:58:15;13.90;99.90
4530;DHT22;2277;51.626;7.516;2023-02-13T18:00:41;13.80;99.90
4530;DHT22;2277;51.626;7.516;2023-02-13T18:03:06;13.70;99.90
4530;DHT22;2277;51.626;7.516;2023-02-13T18:05:32;13.80;99.90
4530;DHT22;2277;51.626;7.516;2023-02-13T18:07:58;13.90;99.90
4530;DHT22;2277;51.626;7.516;2023-02-13T18:10:27;13.90;99.90
4530;DHT22;2277;51.626;7.516;2023-02-13T18:12:54;13.80;99.90
4530;DHT22;2277;51.626;7.516;2023-02-13T18:15:21;13.80;99.90
4530;DHT22;2277;51.626;7.516;2023-02-13T18:17:47;13.80;99.90
4530;DHT22;2277;51.626;7.516;2023-02-13T18:20:15;13.70;99.90
4530;DHT22;2277;51.626;7.516;2023-02-13T18:22:41;13.70;99.90
4530;DHT22;2277;51.626;7.516;2023-02-13T18:25:07;13.60;99.90
4530;DHT22;2277;51.626;7.516;2023-02-13T18:27:33;13.50;99.90
4530;DHT22;2277;51.626;7.516;2023-02-13T18:29:59;13.50;99.90
4530;DHT22;2277;51.626;7.516;2023-02-13T18:32:24;13.50;99.90
4530;DHT22;2277;51.626;7.516;2023-02-13T18:34:50;13.50;99.90
4530;DHT22;2277;51.626;7.516;2023-02-13T18:37:17;13.50;99.90
4530;DHT22;2277;51.626;7.516;2023-02-13T18:39:43;13.40;99.90
4530;DHT22;2277;51.626;7.516;2023-02-13T18:42:09;13.40;99.90
4530;DHT22;2277;51.626;7.516;2023-02-13T18:44:35;13.30;99.90
4530;DHT22;2277;51.626;7.516;2023-02-13T18:47:01;13.20;99.90
4530;DHT22;2277;51.626;7.516;2023-02-13T18:49:27;13.10;99.90
4530;DHT22;2277;51.626;7.516;2023-02-13T18:51:53;13.00;99.90
4530;DHT22;2277;51.626;7.516;2023-02-13T18:54:18;13.00;99.90
4530;DHT22;2277;51.626;7.516;2023-02-13T18:56:45;12.90;99.90
4530;DHT22;2277;51.626;7.516;2023-02-13T18:59:11;13.00;99.90
4530;DHT22;2277;51.626;7.516;2023-02-13T19:01:37;12.90;99.90
4530;DHT22;2277;51.626;7.516;2023-02-13T19:04:03;12.80;99.90
4530;DHT22;2277;51.626;7.516;2023-02-13T19:06:30;12.80;99.90
4530;DHT22;2277;51.626;7.516;2023-02-13T19:08:56;12.70;99.90
4530;DHT22;2277;51.626;7.516;2023-02-13T19:11:22;12.50;99.90
4530;DHT22;2277;51.626;7.516;2023-02-13T19:13:56;12.40;99.90
4530;DHT22;2277;51.626;7.516;2023-02-13T19:16:23;12.40;99.90
4530;DHT22;2277;51.626;7.516;2023-02-13T19:18:51;12.40;99.90
4530;DHT22;2277;51.626;7.516;2023-02-13T19:21:22;12.30;99.90
4530;DHT22;2277;51.626;7.516;2023-02-13T19:23:49;12.30;99.90
4530;DHT22;2277;51.626;7.516;2023-02-13T19:26:17;12.30;99.90
4530;DHT22;2277;51.626;7.516;2023-02-13T19:28:43;12.30;99.90
4530;DHT22;2277;51.626;7.516;2023-02-13T19:31:14;12.10;99.90
4530;DHT22;2277;51.626;7.516;2023-02-13T19:33:41;12.00;99.90
4530;DHT22;2277;51.626;7.516;2023-02-13T19:36:09;11.90;99.90
4530;DHT22;2277;51.626;7.516;2023-02-13T19:38:40;12.00;99.90
4530;DHT22;2277;51.626;7.516;2023-02-13T19:41:10;12.00;99.90
4530;DHT22;2277;51.626;7.516;2023-02-13T19:43:36;11.90;99.90
4530;DHT22;2277;51.626;7.516;2023-02-13T19:46:06;11.80;99.90
4530;DHT22;2277;51.626;7.516;2023-02-13T19:48:39;11.90;99.90
4530;DHT22;2277;51.626;7.516;2023-02-13T19:51:06;11.90;99.90
4530;DHT22;2277;51.626;7.516;2023-02-13T19:53:32;11.90;99.90
4530;DHT22;2277;51.626;7.516;2023-02-13T19:55:59;11.80;99.90
4530;DHT22;2277;51.626;7.516;2023-02-13T19:58:25;11.80;99.90
4530;DHT22;2277;51.626;7.516;2023-02-13T20:00:50;11.80;99.90